sensor_id;sensor_type;location;lat;lon;timestamp;temperature;humidity
41294;DHT22;27037;52.010;4.446;2023-04-25T00:00:06;7.60;99.90
41294;DHT22;27037;52.010;4.446;2023-04-25T00:02:33;7.50;99.90
41294;DHT22;27037;52.010;4.446;2023-04-25T00:05:00;7.50;99.90
41294;DHT22;27037;52.010;4.446;2023-04-25T00:07:27;7.50;99.90
41294;DHT22;27037;52.010;4.446;2023-04-25T00:09:52;7.40;99.90
41294;DHT22;27037;52.010;4.446;2023-04-25T00:12:18;7.40;99.90
41294;DHT22;27037;52.010;4.446;2023-04-25T00:14:43;7.40;99.90
41294;DHT22;27037;52.010;4.446;2023-04-25T00:17:10;7.40;99.90
41294;DHT22;27037;52.010;4.446;2023-04-25T00:19:36;7.30;99.90
41294;DHT22;27037;52.010;4.446;2023-04-25T00:22:03;7.30;99.90
41294;DHT22;27037;52.010;4.446;2023-04-25T00:24:29;7.30;99.90
41294;DHT22;27037;52.010;4.446;2023-04-25T00:26:55;7.30;99.90
41294;DHT22;27037;52.010;4.446;2023-04-25T00:29:20;7.30;99.90
41294;DHT22;27037;52.010;4.446;2023-04-25T00:31:46;7.20;99.90
41294;DHT22;27037;52.010;4.446;2023-04-25T00:34:11;7.20;99.90
41294;DHT22;27037;52.010;4.446;2023-04-25T00:36:37;7.20;99.90
41294;DHT22;27037;52.010;4.446;2023-04-25T00:39:03;7.20;99.90
41294;DHT22;27037;52.010;4.446;2023-04-25T00:41:30;7.10;99.90
41294;DHT22;27037;52.010;4.446;2023-04-25T00:43:56;7.10;99.90
41294;DHT22;27037;52.010;4.446;2023-04-25T00:46:23;7.20;99.90
41294;DHT22;27037;52.010;4.446;2023-04-25T00:48:48;7.10;99.90
41294;DHT22;27037;52.010;4.446;2023-04-25T00:51:20;7.20;99.90
41294;DHT22;27037;52.010;4.446;2023-04-25T00:53:47;7.20;99.90
41294;DHT22;27037;52.010;4.446;2023-04-25T00:56:14;7.20;99.90
41294;DHT22;27037;52.010;4.446;2023-04-25T00:58:40;7.10;99.90
41294;DHT22;27037;52.010;4.446;2023-04-25T01:01:06;7.20;99.90
41294;DHT22;27037;52.010;4.446;2023-04-25T01:03:33;7.20;99.90
41294;DHT22;27037;52.010;4.446;2023-04-25T01:06:01;7.20;99.90
41294;DHT22;27037;52.010;4.446;2023-04-25T01:08:28;7.20;99.90
41294;DHT22;27037;52.010;4.446;2023-04-25T01:10:53;7.20;99.90
41294;DHT22;27037;52.010;4.446;2023-04-25T01:13:19;7.20;99.90
41294;DHT22;27037;52.010;4.446;2023-04-25T01:15:45;7.20;99.90
41294;DHT22;27037;52.010;4.446;2023-04-25T01:18:11;7.20;99.90
41294;DHT22;27037;52.010;4.446;2023-04-25T01:20:48;7.20;99.90
41294;DHT22;27037;52.010;4.446;2023-04-25T01:23:16;7.10;99.90
41294;DHT22;27037;52.010;4.446;2023-04-25T01:25:42;7.10;99.90
41294;DHT22;27037;52.010;4.446;2023-04-25T01:28:07;7.10;99.90
41294;DHT22;27037;52.010;4.446;2023-04-25T01:30:34;7.10;99.90
41294;DHT22;27037;52.010;4.446;2023-04-25T01:33:01;7.10;99.90
41294;DHT22;27037;52.010;4.446;2023-04-25T01:35:29;7.10;99.90
41294;DHT22;27037;52.010;4.446;2023-04-25T01:37:55;7.00;99.90
41294;DHT22;27037;52.010;4.446;2023-04-25T01:40:21;7.00;99.90
41294;DHT22;27037;52.010;4.446;2023-04-25T01:42:47;7.00;99.90
41294;DHT22;27037;52.010;4.446;2023-04-25T01:45:13;7.00;99.90
41294;DHT22;27037;52.010;4.446;2023-04-25T01:47:39;7.00;99.90
41294;DHT22;27037;52.010;4.446;2023-04-25T01:50:07;7.00;99.90
41294;DHT22;27037;52.010;4.446;2023-04-25T01:52:33;7.00;99.90
41294;DHT22;27037;52.010;4.446;2023-04-25T01:55:00;7.00;99.90
41294;DHT22;27037;52.010;4.446;2023-04-25T01:57:26;7.00;99.90
41294;DHT22;27037;52.010;4.446;2023-04-25T01:59:58;7.00;99.90
41294;DHT22;27037;52.010;4.446;2023-04-25T02:02:24;7.00;99.90
41294;DHT22;27037;52.010;4.446;2023-04-25T02:04:50;7.00;99.90
41294;DHT22;27037;52.010;4.446;2023-04-25T02:07:16;7.00;99.90
41294;DHT22;27037;52.010;4.446;2023-04-25T02:09:41;7.00;99.90
41294;DHT22;27037;52.010;4.446;2023-04-25T02:12:08;7.00;99.90
41294;DHT22;27037;52.010;4.446;2023-04-25T02:14:34;7.00;99.90
41294;DHT22;27037;52.010;4.446;2023-04-25T02:16:59;7.00;99.90
41294;DHT22;27037;52.010;4.446;2023-04-25T02:19:25;7.00;99.90
41294;DHT22;27037;52.010;4.446;2023-04-25T02:21:51;7.00;99.90
41294;DHT22;27037;52.010;4.446;2023-04-25T02:24:16;7.10;99.90
41294;DHT22;27037;52.010;4.446;2023-04-25T02:26:42;7.10;99.90
41294;DHT22;27037;52.010;4.446;2023-04-25T02:29:07;7.10;99.90
41294;DHT22;27037;52.010;4.446;2023-04-25T02:31:33;7.10;99.90
41294;DHT22;27037;52.010;4.446;2023-04-25T02:33:58;7.10;99.90
41294;DHT22;27037;52.010;4.446;2023-04-25T02:36:24;7.10;99.90
41294;DHT22;27037;52.010;4.446;2023-04-25T02:38:49;7.10;99.90
41294;DHT22;27037;52.010;4.446;2023-04-25T02:41:15;7.20;99.90
41294;DHT22;27037;52.010;4.446;2023-04-25T02:43:41;7.20;99.90
41294;DHT22;27037;52.010;4.446;2023-04-25T02:46:07;7.20;99.90
41294;DHT22;27037;52.010;4.446;2023-04-25T02:48:33;7.20;99.90
41294;DHT22;27037;52.010;4.446;2023-04-25T02:50:58;7.20;99.90
41294;DHT22;27037;52.010;4.446;2023-04-25T02:53:24;7.20;99.90
41294;DHT22;27037;52.010;4.446;2023-04-25T02:55:49;7.20;99.90
41294;DHT22;27037;52.010;4.446;2023-04-25T02:58:15;7.20;99.90
41294;DHT22;27037;52.010;4.446;2023-04-25T03:00:41;7.20;99.90
41294;DHT22;27037;52.010;4.446;2023-04-25T03:03:06;7.20;99.90
41294;DHT22;27037;52.010;4.446;2023-04-25T03:05:32;7.20;99.90
41294;DHT22;27037;52.010;4.446;2023-04-25T03:07:57;7.20;99.90
41294;DHT22;27037;52.010;4.446;2023-04-25T03:10:24;7.20;99.90
41294;DHT22;27037;52.010;4.446;2023-04-25T03:12:49;7.20;99.90
41294;DHT22;27037;52.010;4.446;2023-04-25T03:15:15;7.20;99.90
41294;DHT22;27037;52.010;4.446;2023-04-25T03:17:42;7.20;99.90
41294;DHT22;27037;52.010;4.446;2023-04-25T03:20:08;7.20;99.90
41294;DHT22;27037;52.010;4.446;2023-04-25T03:22:34;7.20;99.90
41294;DHT22;27037;52.010;4.446;2023-04-25T03:24:59;7.20;99.90
41294;DHT22;27037;52.010;4.446;2023-04-25T03:27:25;7.20;99.90
41294;DHT22;27037;52.010;4.446;2023-04-25T03:29:51;7.20;99.90
41294;DHT22;27037;52.010;4.446;2023-04-25T03:32:16;7.20;99.90
41294;DHT22;27037;52.010;4.446;2023-04-25T03:34:42;7.20;99.90
41294;DHT22;27037;52.010;4.446;2023-04-25T03:37:08;7.20;99.90
41294;DHT22;27037;52.010;4.446;2023-04-25T03:39:33;7.20;99.90
41294;DHT22;27037;52.010;4.446;2023-04-25T03:41:59;7.20;99.90
41294;DHT22;27037;52.010;4.446;2023-04-25T03:44:25;7.20;99.90
41294;DHT22;27037;52.010;4.446;2023-04-25T03:46:50;7.30;99.90
41294;DHT22;27037;52.010;4.446;2023-04-25T03:49:16;7.20;99.90
41294;DHT22;27037;52.010;4.446;2023-04-25T03:51:42;7.30;99.90
41294;DHT22;27037;52.010;4.446;2023-04-25T03:54:07;7.20;99.90
41294;DHT22;27037;52.010;4.446;2023-04-25T03:56:33;7.20;99.90
41294;DHT22;27037;52.010;4.446;2023-04-25T03:58:58;7.30;99.90
41294;DHT22;27037;52.010;4.446;2023-04-25T04:01:24;7.30;99.90
41294;DHT22;27037;52.010;4.446;2023-04-25T04:03:50;7.30;99.90
41294;DHT22;27037;52.010;4.446;2023-04-25T04:06:16;7.30;99.90
41294;DHT22;27037;52.010;4.446;2023-04-25T04:08:42;7.30;99.90
41294;DHT22;27037;52.010;4.446;2023-04-25T04:11:07;7.30;99.90
41294;DHT22;27037;52.010;4.446;2023-04-25T04:13:33;7.30;99.90
41294;DHT22;27037;52.010;4.446;2023-04-25T04:15:58;7.30;99.90
41294;DHT22;27037;52.010;4.446;2023-04-25T04:18:24;7.30;99.90
41294;DHT22;27037;52.010;4.446;2023-04-25T04:20:50;7.30;99.90
41294;DHT22;27037;52.010;4.446;2023-04-25T04:23:16;7.30;99.90
41294;DHT22;27037;52.010;4.446;2023-04-25T04:25:41;7.30;99.90
41294;DHT22;27037;52.010;4.446;2023-04-25T04:28:07;7.30;99.90
41294;DHT22;27037;52.010;4.446;2023-04-25T04:30:33;7.30;99.90
41294;DHT22;27037;52.010;4.446;2023-04-25T04:33:02;7.30;99.90
41294;DHT22;27037;52.010;4.446;2023-04-25T04:35:28;7.30;99.90
41294;DHT22;27037;52.010;4.446;2023-04-25T04:37:53;7.30;99.90
41294;DHT22;27037;52.010;4.446;2023-04-25T04:40:20;7.20;99.90
41294;DHT22;27037;52.010;4.446;2023-04-25T04:42:47;7.20;99.90
41294;DHT22;27037;52.010;4.446;2023-04-25T04:45:13;7.20;99.90
41294;DHT22;27037;52.010;4.446;2023-04-25T04:47:39;7.20;99.90
41294;DHT22;27037;52.010;4.446;2023-04-25T04:50:09;7.20;99.90
41294;DHT22;27037;52.010;4.446;2023-04-25T04:52:36;7.10;99.90
41294;DHT22;27037;52.010;4.446;2023-04-25T04:55:04;7.10;99.90
41294;DHT22;27037;52.010;4.446;2023-04-25T04:57:30;7.10;99.90
41294;DHT22;27037;52.010;4.446;2023-04-25T04:59:58;7.10;99.90
41294;DHT22;27037;52.010;4.446;2023-04-25T05:02:24;7.10;99.90
41294;DHT22;27037;52.010;4.446;2023-04-25T05:04:49;7.10;99.90
41294;DHT22;27037;52.010;4.446;2023-04-25T05:07:17;7.10;99.90
41294;DHT22;27037;52.010;4.446;2023-04-25T05:09:42;7.10;99.90
41294;DHT22;27037;52.010;4.446;2023-04-25T05:12:08;7.10;99.90
41294;DHT22;27037;52.010;4.446;2023-04-25T05:14:34;7.10;99.90
41294;DHT22;27037;52.010;4.446;2023-04-25T05:16:59;7.00;99.90
41294;DHT22;27037;52.010;4.446;2023-04-25T05:19:25;7.00;99.90
41294;DHT22;27037;52.010;4.446;2023-04-25T05:21:51;7.00;99.90
41294;DHT22;27037;52.010;4.446;2023-04-25T05:24:17;7.00;99.90
41294;DHT22;27037;52.010;4.446;2023-04-25T05:26:43;7.00;99.90
41294;DHT22;27037;52.010;4.446;2023-04-25T05:29:08;7.00;99.90
41294;DHT22;27037;52.010;4.446;2023-04-25T05:31:35;7.00;99.90
41294;DHT22;27037;52.010;4.446;2023-04-25T05:34:01;7.00;99.90
41294;DHT22;27037;52.010;4.446;2023-04-25T05:36:26;6.90;99.90
41294;DHT22;27037;52.010;4.446;2023-04-25T05:38:52;6.90;99.90
41294;DHT22;27037;52.010;4.446;2023-04-25T05:41:18;6.90;99.90
41294;DHT22;27037;52.010;4.446;2023-04-25T05:43:43;6.90;99.90
41294;DHT22;27037;52.010;4.446;2023-04-25T05:46:10;6.90;99.90
41294;DHT22;27037;52.010;4.446;2023-04-25T05:48:37;7.00;99.90
41294;DHT22;27037;52.010;4.446;2023-04-25T05:51:02;7.00;99.90
41294;DHT22;27037;52.010;4.446;2023-04-25T05:53:28;7.00;99.90
41294;DHT22;27037;52.010;4.446;2023-04-25T05:55:54;7.10;99.90
41294;DHT22;27037;52.010;4.446;2023-04-25T05:58:19;7.10;99.90
41294;DHT22;27037;52.010;4.446;2023-04-25T06:00:45;7.10;99.90
41294;DHT22;27037;52.010;4.446;2023-04-25T06:03:12;7.10;99.90
41294;DHT22;27037;52.010;4.446;2023-04-25T06:05:41;7.00;99.90
41294;DHT22;27037;52.010;4.446;2023-04-25T06:08:06;7.00;99.90
41294;DHT22;27037;52.010;4.446;2023-04-25T06:10:32;7.00;99.90
41294;DHT22;27037;52.010;4.446;2023-04-25T06:12:57;6.90;99.90
41294;DHT22;27037;52.010;4.446;2023-04-25T06:15:23;6.90;99.90
41294;DHT22;27037;52.010;4.446;2023-04-25T06:17:49;6.90;99.90
41294;DHT22;27037;52.010;4.446;2023-04-25T06:20:14;6.90;99.90
41294;DHT22;27037;52.010;4.446;2023-04-25T06:22:40;6.90;99.90
41294;DHT22;27037;52.010;4.446;2023-04-25T06:25:06;6.90;99.90
41294;DHT22;27037;52.010;4.446;2023-04-25T06:27:33;6.90;99.90
41294;DHT22;27037;52.010;4.446;2023-04-25T06:29:58;7.00;99.90
41294;DHT22;27037;52.010;4.446;2023-04-25T06:32:24;7.00;99.90
41294;DHT22;27037;52.010;4.446;2023-04-25T06:34:50;7.10;99.90
41294;DHT22;27037;52.010;4.446;2023-04-25T06:37:16;7.20;99.90
41294;DHT22;27037;52.010;4.446;2023-04-25T06:39:41;7.20;99.90
41294;DHT22;27037;52.010;4.446;2023-04-25T06:42:07;7.30;99.90
41294;DHT22;27037;52.010;4.446;2023-04-25T06:44:32;7.40;99.90
41294;DHT22;27037;52.010;4.446;2023-04-25T06:46:58;7.40;99.90
41294;DHT22;27037;52.010;4.446;2023-04-25T06:49:23;7.50;99.90
41294;DHT22;27037;52.010;4.446;2023-04-25T06:51:49;7.50;99.90
41294;DHT22;27037;52.010;4.446;2023-04-25T06:54:14;7.60;99.90
41294;DHT22;27037;52.010;4.446;2023-04-25T06:56:40;7.60;99.90
41294;DHT22;27037;52.010;4.446;2023-04-25T06:59:06;7.60;99.90
41294;DHT22;27037;52.010;4.446;2023-04-25T07:01:31;7.70;99.90
41294;DHT22;27037;52.010;4.446;2023-04-25T07:03:57;7.70;99.90
41294;DHT22;27037;52.010;4.446;2023-04-25T07:06:23;7.70;99.90
41294;DHT22;27037;52.010;4.446;2023-04-25T07:08:48;7.60;99.90
41294;DHT22;27037;52.010;4.446;2023-04-25T07:11:14;7.70;99.90
41294;DHT22;27037;52.010;4.446;2023-04-25T07:13:39;7.70;99.90
41294;DHT22;27037;52.010;4.446;2023-04-25T07:16:05;7.70;99.90
41294;DHT22;27037;52.010;4.446;2023-04-25T07:18:31;7.80;99.90
41294;DHT22;27037;52.010;4.446;2023-04-25T07:20:56;7.90;99.90
41294;DHT22;27037;52.010;4.446;2023-04-25T07:23:22;8.00;99.90
41294;DHT22;27037;52.010;4.446;2023-04-25T07:25:48;8.10;99.90
41294;DHT22;27037;52.010;4.446;2023-04-25T07:28:13;8.20;99.90
41294;DHT22;27037;52.010;4.446;2023-04-25T07:30:39;8.30;99.90
41294;DHT22;27037;52.010;4.446;2023-04-25T07:33:05;8.40;99.90
41294;DHT22;27037;52.010;4.446;2023-04-25T07:35:30;8.40;99.90
41294;DHT22;27037;52.010;4.446;2023-04-25T07:37:56;8.40;99.90
41294;DHT22;27037;52.010;4.446;2023-04-25T07:40:22;8.50;99.90
41294;DHT22;27037;52.010;4.446;2023-04-25T07:42:47;8.70;99.90
41294;DHT22;27037;52.010;4.446;2023-04-25T07:45:13;8.80;99.90
41294;DHT22;27037;52.010;4.446;2023-04-25T07:47:39;8.90;99.90
41294;DHT22;27037;52.010;4.446;2023-04-25T07:50:05;9.00;99.90
41294;DHT22;27037;52.010;4.446;2023-04-25T07:52:31;9.10;99.90
41294;DHT22;27037;52.010;4.446;2023-04-25T07:54:56;9.30;99.90
41294;DHT22;27037;52.010;4.446;2023-04-25T07:57:24;9.40;99.90
41294;DHT22;27037;52.010;4.446;2023-04-25T07:59:49;9.40;99.90
41294;DHT22;27037;52.010;4.446;2023-04-25T08:02:15;9.30;99.90
41294;DHT22;27037;52.010;4.446;2023-04-25T08:04:41;9.20;99.90
41294;DHT22;27037;52.010;4.446;2023-04-25T08:07:06;9.20;99.90
41294;DHT22;27037;52.010;4.446;2023-04-25T08:09:32;9.10;99.90
41294;DHT22;27037;52.010;4.446;2023-04-25T08:12:02;9.10;99.90
41294;DHT22;27037;52.010;4.446;2023-04-25T08:14:28;9.10;99.90
41294;DHT22;27037;52.010;4.446;2023-04-25T08:16:56;9.20;99.90
41294;DHT22;27037;52.010;4.446;2023-04-25T08:19:22;9.10;99.90
41294;DHT22;27037;52.010;4.446;2023-04-25T08:21:48;9.20;99.90
41294;DHT22;27037;52.010;4.446;2023-04-25T08:24:13;9.20;99.90
41294;DHT22;27037;52.010;4.446;2023-04-25T08:26:39;9.40;99.90
41294;DHT22;27037;52.010;4.446;2023-04-25T08:29:06;9.50;99.90
41294;DHT22;27037;52.010;4.446;2023-04-25T08:31:31;9.60;99.90
41294;DHT22;27037;52.010;4.446;2023-04-25T08:33:57;9.50;99.90
41294;DHT22;27037;52.010;4.446;2023-04-25T08:36:23;9.50;99.90
41294;DHT22;27037;52.010;4.446;2023-04-25T08:38:49;9.40;99.90
41294;DHT22;27037;52.010;4.446;2023-04-25T08:41:15;9.40;99.90
41294;DHT22;27037;52.010;4.446;2023-04-25T08:43:42;9.50;99.90
41294;DHT22;27037;52.010;4.446;2023-04-25T08:46:09;9.40;99.90
41294;DHT22;27037;52.010;4.446;2023-04-25T08:48:36;9.40;99.90
41294;DHT22;27037;52.010;4.446;2023-04-25T08:51:03;9.50;99.90
41294;DHT22;27037;52.010;4.446;2023-04-25T08:53:33;9.50;99.90
41294;DHT22;27037;52.010;4.446;2023-04-25T08:56:00;9.50;99.90
41294;DHT22;27037;52.010;4.446;2023-04-25T08:58:29;9.40;99.90
41294;DHT22;27037;52.010;4.446;2023-04-25T09:00:55;9.50;99.90
41294;DHT22;27037;52.010;4.446;2023-04-25T09:03:21;9.60;99.90
41294;DHT22;27037;52.010;4.446;2023-04-25T09:05:47;9.80;99.90
41294;DHT22;27037;52.010;4.446;2023-04-25T09:08:12;9.90;99.90
41294;DHT22;27037;52.010;4.446;2023-04-25T09:10:40;10.00;99.90
41294;DHT22;27037;52.010;4.446;2023-04-25T09:13:11;10.10;99.90
41294;DHT22;27037;52.010;4.446;2023-04-25T09:18:12;10.40;99.90
41294;DHT22;27037;52.010;4.446;2023-04-25T09:20:42;10.60;99.90
41294;DHT22;27037;52.010;4.446;2023-04-25T09:23:08;10.70;99.90
41294;DHT22;27037;52.010;4.446;2023-04-25T09:25:38;10.60;99.90
41294;DHT22;27037;52.010;4.446;2023-04-25T09:28:08;10.70;99.90
41294;DHT22;27037;52.010;4.446;2023-04-25T09:30:35;10.80;99.90
41294;DHT22;27037;52.010;4.446;2023-04-25T09:33:05;10.90;99.90
41294;DHT22;27037;52.010;4.446;2023-04-25T09:35:36;10.70;99.90
41294;DHT22;27037;52.010;4.446;2023-04-25T09:38:10;10.60;99.90
41294;DHT22;27037;52.010;4.446;2023-04-25T09:40:45;10.70;99.90
41294;DHT22;27037;52.010;4.446;2023-04-25T09:43:21;10.70;99.90
41294;DHT22;27037;52.010;4.446;2023-04-25T09:45:47;10.80;99.90
41294;DHT22;27037;52.010;4.446;2023-04-25T09:48:21;11.00;99.90
41294;DHT22;27037;52.010;4.446;2023-04-25T09:51:09;11.10;99.90
41294;DHT22;27037;52.010;4.446;2023-04-25T09:53:37;11.40;99.90
41294;DHT22;27037;52.010;4.446;2023-04-25T09:56:07;11.50;99.90
41294;DHT22;27037;52.010;4.446;2023-04-25T09:58:34;11.50;99.90
41294;DHT22;27037;52.010;4.446;2023-04-25T10:01:02;11.50;99.90
41294;DHT22;27037;52.010;4.446;2023-04-25T10:03:32;11.60;99.90
41294;DHT22;27037;52.010;4.446;2023-04-25T10:06:08;11.50;99.90
41294;DHT22;27037;52.010;4.446;2023-04-25T10:08:37;11.40;99.90
41294;DHT22;27037;52.010;4.446;2023-04-25T10:11:05;11.20;99.90
41294;DHT22;27037;52.010;4.446;2023-04-25T10:13:31;11.00;99.90
41294;DHT22;27037;52.010;4.446;2023-04-25T10:16:02;11.10;99.90
41294;DHT22;27037;52.010;4.446;2023-04-25T10:18:29;11.30;99.90
41294;DHT22;27037;52.010;4.446;2023-04-25T10:20:57;11.50;99.90
41294;DHT22;27037;52.010;4.446;2023-04-25T10:23:24;11.40;99.90
41294;DHT22;27037;52.010;4.446;2023-04-25T10:25:51;11.20;99.90
41294;DHT22;27037;52.010;4.446;2023-04-25T10:28:18;11.10;99.90
41294;DHT22;27037;52.010;4.446;2023-04-25T10:31:03;10.80;99.90
41294;DHT22;27037;52.010;4.446;2023-04-25T10:35:59;10.60;99.90
41294;DHT22;27037;52.010;4.446;2023-04-25T10:38:33;10.70;99.90
41294;DHT22;27037;52.010;4.446;2023-04-25T10:41:06;10.90;99.90
41294;DHT22;27037;52.010;4.446;2023-04-25T10:43:41;10.90;99.90
41294;DHT22;27037;52.010;4.446;2023-04-25T10:46:28;11.10;99.90
41294;DHT22;27037;52.010;4.446;2023-04-25T10:48:59;11.30;99.90
41294;DHT22;27037;52.010;4.446;2023-04-25T10:51:32;11.60;99.90
41294;DHT22;27037;52.010;4.446;2023-04-25T10:54:05;11.70;99.90
41294;DHT22;27037;52.010;4.446;2023-04-25T10:56:39;11.80;99.90
41294;DHT22;27037;52.010;4.446;2023-04-25T10:59:14;11.80;99.90
41294;DHT22;27037;52.010;4.446;2023-04-25T11:01:46;11.60;99.90
41294;DHT22;27037;52.010;4.446;2023-04-25T11:04:24;11.50;99.90
41294;DHT22;27037;52.010;4.446;2023-04-25T11:09:19;11.80;99.90
41294;DHT22;27037;52.010;4.446;2023-04-25T11:11:56;11.80;99.90
41294;DHT22;27037;52.010;4.446;2023-04-25T11:14:22;11.70;99.90
41294;DHT22;27037;52.010;4.446;2023-04-25T11:16:53;11.60;99.90
41294;DHT22;27037;52.010;4.446;2023-04-25T11:19:20;11.50;99.90
41294;DHT22;27037;52.010;4.446;2023-04-25T11:21:46;11.60;99.90
41294;DHT22;27037;52.010;4.446;2023-04-25T11:24:11;11.60;99.30
41294;DHT22;27037;52.010;4.446;2023-04-25T11:26:37;11.60;97.50
41294;DHT22;27037;52.010;4.446;2023-04-25T11:29:03;11.40;97.10
41294;DHT22;27037;52.010;4.446;2023-04-25T11:31:29;11.50;98.80
41294;DHT22;27037;52.010;4.446;2023-04-25T11:33:57;11.70;99.40
41294;DHT22;27037;52.010;4.446;2023-04-25T11:36:24;12.00;98.90
41294;DHT22;27037;52.010;4.446;2023-04-25T11:38:51;12.20;99.70
41294;DHT22;27037;52.010;4.446;2023-04-25T11:41:17;12.30;97.40
41294;DHT22;27037;52.010;4.446;2023-04-25T11:43:43;12.30;97.90
41294;DHT22;27037;52.010;4.446;2023-04-25T11:46:09;12.30;96.50
41294;DHT22;27037;52.010;4.446;2023-04-25T11:48:39;12.30;97.60
41294;DHT22;27037;52.010;4.446;2023-04-25T11:51:05;12.30;95.90
41294;DHT22;27037;52.010;4.446;2023-04-25T11:53:31;12.20;96.00
41294;DHT22;27037;52.010;4.446;2023-04-25T11:55:56;12.20;96.80
41294;DHT22;27037;52.010;4.446;2023-04-25T11:58:22;12.40;97.10
41294;DHT22;27037;52.010;4.446;2023-04-25T12:00:48;12.20;96.40
41294;DHT22;27037;52.010;4.446;2023-04-25T12:03:14;12.10;95.30
41294;DHT22;27037;52.010;4.446;2023-04-25T12:05:39;11.90;96.50
41294;DHT22;27037;52.010;4.446;2023-04-25T12:10:39;11.70;97.90
41294;DHT22;27037;52.010;4.446;2023-04-25T12:15:45;11.50;99.10
41294;DHT22;27037;52.010;4.446;2023-04-25T12:18:10;11.60;99.10
41294;DHT22;27037;52.010;4.446;2023-04-25T12:20:36;11.70;99.20
41294;DHT22;27037;52.010;4.446;2023-04-25T12:23:05;11.80;99.80
41294;DHT22;27037;52.010;4.446;2023-04-25T12:28:31;11.80;97.60
41294;DHT22;27037;52.010;4.446;2023-04-25T12:31:02;11.80;97.90
41294;DHT22;27037;52.010;4.446;2023-04-25T12:33:30;11.70;98.10
41294;DHT22;27037;52.010;4.446;2023-04-25T12:35:57;11.60;98.20
41294;DHT22;27037;52.010;4.446;2023-04-25T12:38:36;11.60;98.60
41294;DHT22;27037;52.010;4.446;2023-04-25T12:41:02;11.80;98.40
41294;DHT22;27037;52.010;4.446;2023-04-25T12:43:27;11.90;97.60
41294;DHT22;27037;52.010;4.446;2023-04-25T12:45:54;11.90;96.60
41294;DHT22;27037;52.010;4.446;2023-04-25T12:48:21;11.80;96.20
41294;DHT22;27037;52.010;4.446;2023-04-25T12:50:47;11.80;94.90
41294;DHT22;27037;52.010;4.446;2023-04-25T12:53:17;11.80;96.60
41294;DHT22;27037;52.010;4.446;2023-04-25T12:55:43;11.90;96.60
41294;DHT22;27037;52.010;4.446;2023-04-25T12:58:11;12.00;96.10
41294;DHT22;27037;52.010;4.446;2023-04-25T13:00:36;11.90;95.60
41294;DHT22;27037;52.010;4.446;2023-04-25T13:03:03;11.90;97.10
41294;DHT22;27037;52.010;4.446;2023-04-25T13:05:30;11.90;97.10
41294;DHT22;27037;52.010;4.446;2023-04-25T13:07:56;12.00;97.10
41294;DHT22;27037;52.010;4.446;2023-04-25T13:10:22;12.00;97.20
41294;DHT22;27037;52.010;4.446;2023-04-25T13:12:47;12.00;96.70
41294;DHT22;27037;52.010;4.446;2023-04-25T13:15:13;11.70;96.90
41294;DHT22;27037;52.010;4.446;2023-04-25T13:17:41;11.40;97.80
41294;DHT22;27037;52.010;4.446;2023-04-25T13:20:07;11.20;98.40
41294;DHT22;27037;52.010;4.446;2023-04-25T13:22:34;11.20;98.90
41294;DHT22;27037;52.010;4.446;2023-04-25T13:25:02;11.30;98.20
41294;DHT22;27037;52.010;4.446;2023-04-25T13:27:28;11.40;98.00
41294;DHT22;27037;52.010;4.446;2023-04-25T13:29:54;11.40;97.60
41294;DHT22;27037;52.010;4.446;2023-04-25T13:32:20;11.40;97.70
41294;DHT22;27037;52.010;4.446;2023-04-25T13:34:45;11.20;99.90
41294;DHT22;27037;52.010;4.446;2023-04-25T13:37:11;11.20;99.90
41294;DHT22;27037;52.010;4.446;2023-04-25T13:39:36;11.10;99.90
41294;DHT22;27037;52.010;4.446;2023-04-25T13:42:02;11.10;99.90
41294;DHT22;27037;52.010;4.446;2023-04-25T13:44:28;11.10;99.90
41294;DHT22;27037;52.010;4.446;2023-04-25T13:46:54;11.20;99.90
41294;DHT22;27037;52.010;4.446;2023-04-25T13:49:19;11.30;99.90
41294;DHT22;27037;52.010;4.446;2023-04-25T13:51:45;11.40;99.90
41294;DHT22;27037;52.010;4.446;2023-04-25T13:54:11;11.50;99.90
41294;DHT22;27037;52.010;4.446;2023-04-25T13:56:36;11.40;99.90
41294;DHT22;27037;52.010;4.446;2023-04-25T13:59:02;11.40;99.90
41294;DHT22;27037;52.010;4.446;2023-04-25T14:01:28;11.30;99.50
41294;DHT22;27037;52.010;4.446;2023-04-25T14:03:56;11.20;99.50
41294;DHT22;27037;52.010;4.446;2023-04-25T14:06:22;11.20;99.10
41294;DHT22;27037;52.010;4.446;2023-04-25T14:08:48;11.40;97.40
41294;DHT22;27037;52.010;4.446;2023-04-25T14:11:14;11.40;96.90
41294;DHT22;27037;52.010;4.446;2023-04-25T14:13:40;11.20;96.30
41294;DHT22;27037;52.010;4.446;2023-04-25T14:16:05;11.20;96.10
41294;DHT22;27037;52.010;4.446;2023-04-25T14:18:31;11.10;94.20
41294;DHT22;27037;52.010;4.446;2023-04-25T14:20:56;11.10;93.90
41294;DHT22;27037;52.010;4.446;2023-04-25T14:23:22;11.30;95.40
41294;DHT22;27037;52.010;4.446;2023-04-25T14:25:47;11.50;95.50
41294;DHT22;27037;52.010;4.446;2023-04-25T14:28:13;11.60;94.90
41294;DHT22;27037;52.010;4.446;2023-04-25T14:30:39;11.60;92.00
41294;DHT22;27037;52.010;4.446;2023-04-25T14:33:04;11.50;93.60
41294;DHT22;27037;52.010;4.446;2023-04-25T14:35:30;11.50;95.10
41294;DHT22;27037;52.010;4.446;2023-04-25T14:37:56;11.60;93.90
41294;DHT22;27037;52.010;4.446;2023-04-25T14:40:22;11.50;94.50
41294;DHT22;27037;52.010;4.446;2023-04-25T14:42:48;11.50;94.90
41294;DHT22;27037;52.010;4.446;2023-04-25T14:45:15;11.60;94.50
41294;DHT22;27037;52.010;4.446;2023-04-25T14:47:41;11.70;95.10
41294;DHT22;27037;52.010;4.446;2023-04-25T14:50:07;11.80;95.10
41294;DHT22;27037;52.010;4.446;2023-04-25T14:52:34;11.80;95.40
41294;DHT22;27037;52.010;4.446;2023-04-25T14:54:59;11.80;96.60
41294;DHT22;27037;52.010;4.446;2023-04-25T14:57:33;11.70;98.10
41294;DHT22;27037;52.010;4.446;2023-04-25T15:00:00;11.50;99.70
41294;DHT22;27037;52.010;4.446;2023-04-25T15:02:26;11.40;99.90
41294;DHT22;27037;52.010;4.446;2023-04-25T15:04:53;11.20;99.90
41294;DHT22;27037;52.010;4.446;2023-04-25T15:07:18;11.00;99.90
41294;DHT22;27037;52.010;4.446;2023-04-25T15:09:44;10.80;99.90
41294;DHT22;27037;52.010;4.446;2023-04-25T15:12:10;10.80;99.90
41294;DHT22;27037;52.010;4.446;2023-04-25T15:14:36;10.90;99.90
41294;DHT22;27037;52.010;4.446;2023-04-25T15:17:01;11.10;99.90
41294;DHT22;27037;52.010;4.446;2023-04-25T15:19:27;11.20;99.90
41294;DHT22;27037;52.010;4.446;2023-04-25T15:21:53;11.10;99.90
41294;DHT22;27037;52.010;4.446;2023-04-25T15:24:19;11.00;99.90
41294;DHT22;27037;52.010;4.446;2023-04-25T15:26:45;10.90;99.90
41294;DHT22;27037;52.010;4.446;2023-04-25T15:29:11;10.70;99.90
41294;DHT22;27037;52.010;4.446;2023-04-25T15:31:37;10.60;99.90
41294;DHT22;27037;52.010;4.446;2023-04-25T15:34:03;10.60;99.90
41294;DHT22;27037;52.010;4.446;2023-04-25T15:36:29;10.70;99.90
41294;DHT22;27037;52.010;4.446;2023-04-25T15:38:55;10.90;99.90
41294;DHT22;27037;52.010;4.446;2023-04-25T15:41:21;11.10;99.90
41294;DHT22;27037;52.010;4.446;2023-04-25T15:43:47;11.20;99.90
41294;DHT22;27037;52.010;4.446;2023-04-25T15:46:13;11.30;99.90
41294;DHT22;27037;52.010;4.446;2023-04-25T15:48:39;11.30;99.90
41294;DHT22;27037;52.010;4.446;2023-04-25T15:51:04;11.30;99.90